createdAt,value
2023-03-26T00:00:26.347Z,69.38
2023-03-26T00:02:57.064Z,68.83
2023-03-26T00:05:28.228Z,68.48
2023-03-26T00:07:58.867Z,68.30
2023-03-26T00:10:29.563Z,68.38
2023-03-26T00:13:00.490Z,68.66
2023-03-26T00:15:31.704Z,68.04
2023-03-26T00:18:02.901Z,67.77
2023-03-26T00:20:34.306Z,67.76
2023-03-26T00:23:05.535Z,67.94
2023-03-26T00:25:41.287Z,67.26
2023-03-26T00:28:12.293Z,67.07
2023-03-26T00:30:43.240Z,67.06
2023-03-26T00:33:17.262Z,66.89
2023-03-26T00:35:54.511Z,66.75
2023-03-26T00:38:26.891Z,66.42
2023-03-26T00:41:06.002Z,66.41
2023-03-26T00:43:38.457Z,66.33
2023-03-26T00:46:09.650Z,66.68
2023-03-26T00:48:45.865Z,66.35
2023-03-26T00:51:18.518Z,66.20
2023-03-26T00:53:50.871Z,65.86
2023-03-26T00:56:21.889Z,65.82
2023-03-26T00:58:52.953Z,66.03
2023-03-26T01:01:28.554Z,66.76
2023-03-26T01:04:14.623Z,65.95
2023-03-26T01:06:46.927Z,66.13
2023-03-26T01:09:20.262Z,65.79
2023-03-26T01:11:51.582Z,66.44
2023-03-26T01:14:24.631Z,66.22
2023-03-26T01:16:57.252Z,66.36
2023-03-26T01:19:34.136Z,66.73
2023-03-26T01:22:06.246Z,67.24
2023-03-26T01:24:37.218Z,67.38
2023-03-26T01:27:26.381Z,67.86
2023-03-26T01:30:04.028Z,68.09
2023-03-26T01:32:44.944Z,68.70
2023-03-26T01:35:28.926Z,69.08
2023-03-26T01:38:12.835Z,68.85
2023-03-26T01:40:49.478Z,68.84
2023-03-26T01:43:34.220Z,68.33
2023-03-26T01:46:05.523Z,67.94
2023-03-26T01:48:38.804Z,68.28
2023-03-26T01:51:12.043Z,67.96
2023-03-26T01:53:46.027Z,67.38
2023-03-26T01:56:22.693Z,67.53
2023-03-26T01:59:17.357Z,67.36
2023-03-26T02:01:55.876Z,67.31
2023-03-26T02:04:27.409Z,66.84
2023-03-26T02:07:05.882Z,67.06
2023-03-26T02:09:45.872Z,66.69
2023-03-26T02:12:17.996Z,66.81
2023-03-26T02:14:49.021Z,67.08
2023-03-26T02:17:24.436Z,67.70
2023-03-26T02:19:55.474Z,67.35
2023-03-26T02:22:29.770Z,67.50
2023-03-26T02:25:03.059Z,67.77
2023-03-26T02:27:33.852Z,67.82
2023-03-26T02:30:05.800Z,67.88
2023-03-26T02:32:37.097Z,67.87
2023-03-26T02:35:09.641Z,67.90
2023-03-26T02:37:42.105Z,68.04
2023-03-26T02:40:21.187Z,68.24
2023-03-26T02:42:52.575Z,68.29
2023-03-26T02:45:23.613Z,68.68
2023-03-26T02:48:09.649Z,68.67
2023-03-26T02:50:59.772Z,68.50
2023-03-26T02:53:51.184Z,68.66
2023-03-26T02:56:27.642Z,69.05
2023-03-26T02:59:08.565Z,69.14
2023-03-26T03:01:42.869Z,69.40
2023-03-26T03:04:13.969Z,69.77
2023-03-26T03:06:45.896Z,69.90
2023-03-26T03:09:16.889Z,70.37
2023-03-26T03:12:07.436Z,70.48
2023-03-26T03:14:38.854Z,70.19
2023-03-26T03:17:09.657Z,70.19
2023-03-26T03:19:40.454Z,70.02
2023-03-26T03:22:11.449Z,70.26
2023-03-26T03:24:43.968Z,70.89
2023-03-26T03:27:15.565Z,70.91
2023-03-26T03:29:53.786Z,70.67
2023-03-26T03:32:43.073Z,70.72
2023-03-26T03:35:14.421Z,70.74
2023-03-26T03:37:45.156Z,70.99
2023-03-26T03:40:16.815Z,70.73
2023-03-26T03:42:48.621Z,70.94
2023-03-26T03:45:27.601Z,70.86
2023-03-26T03:48:18.862Z,70.85
2023-03-26T03:50:50.464Z,70.76
2023-03-26T03:53:30.474Z,70.75
2023-03-26T03:56:03.252Z,70.66
2023-03-26T03:58:53.985Z,70.78
2023-03-26T04:01:32.997Z,70.71
2023-03-26T04:04:08.014Z,70.69
2023-03-26T04:07:01.561Z,71.15
2023-03-26T04:09:40.736Z,70.39
2023-03-26T04:12:17.807Z,70.17
2023-03-26T04:15:05.069Z,70.66
2023-03-26T04:17:42.561Z,70.27
2023-03-26T04:20:15.834Z,71.14
2023-03-26T04:22:48.616Z,70.39
2023-03-26T04:25:21.511Z,70.10
2023-03-26T04:28:01.414Z,69.92
2023-03-26T04:30:53.773Z,69.83
2023-03-26T04:33:36.436Z,70.30
2023-03-26T04:36:10.413Z,69.60
2023-03-26T04:38:45.011Z,69.47
2023-03-26T04:41:16.759Z,69.24
2023-03-26T04:44:06.945Z,69.13
2023-03-26T04:46:43.575Z,69.92
2023-03-26T04:49:19.919Z,69.37
2023-03-26T04:51:50.992Z,69.10
2023-03-26T04:54:54.463Z,68.82
2023-03-26T04:57:30.921Z,68.99
2023-03-26T05:00:15.063Z,69.09
2023-03-26T05:02:49.814Z,69.04
2023-03-26T05:05:20.930Z,68.83
2023-03-26T05:07:52.557Z,69.21
2023-03-26T05:10:24.811Z,69.27
2023-03-26T05:13:03.864Z,68.69
2023-03-26T05:15:40.022Z,68.43
2023-03-26T05:18:14.046Z,68.58
2023-03-26T05:20:47.892Z,68.91
2023-03-26T05:23:18.582Z,68.60
2023-03-26T05:25:54.688Z,68.56
2023-03-26T05:28:28.349Z,68.69
2023-03-26T05:31:03.066Z,68.75
2023-03-26T05:33:37.554Z,68.59
2023-03-26T05:36:16.001Z,68.53
2023-03-26T05:39:07.141Z,69.05
2023-03-26T05:41:56.524Z,69.33
2023-03-26T05:44:32.414Z,68.38
2023-03-26T05:47:05.521Z,68.04
2023-03-26T05:49:37.219Z,68.34
2023-03-26T05:52:08.226Z,67.90
2023-03-26T05:54:57.190Z,67.59
2023-03-26T05:57:46.709Z,67.67
2023-03-26T06:00:38.508Z,67.37
2023-03-26T06:03:12.709Z,68.38
2023-03-26T06:06:17.808Z,67.90
2023-03-26T06:09:06.664Z,67.70
2023-03-26T06:11:37.489Z,67.31
2023-03-26T06:14:09.609Z,67.84
2023-03-26T06:16:43.691Z,67.87
2023-03-26T06:19:25.296Z,67.55
2023-03-26T06:22:14.112Z,67.64
2023-03-26T06:25:03.695Z,67.16
2023-03-26T06:27:51.126Z,66.71
2023-03-26T06:30:40.534Z,66.20
2023-03-26T06:33:22.735Z,66.35
2023-03-26T06:35:56.051Z,66.73
2023-03-26T06:38:26.906Z,66.18
2023-03-26T06:41:02.613Z,65.74
2023-03-26T06:43:42.035Z,65.48
2023-03-26T06:46:31.377Z,65.72
2023-03-26T06:49:20.906Z,65.61
2023-03-26T06:52:17.894Z,65.97
2023-03-26T06:55:10.448Z,65.88
2023-03-26T06:58:12.036Z,65.46
2023-03-26T07:01:01.842Z,65.15
2023-03-26T07:03:51.569Z,64.81
2023-03-26T07:06:41.433Z,64.84
2023-03-26T07:09:31.370Z,64.26
2023-03-26T07:12:24.980Z,64.22
2023-03-26T07:15:34.017Z,63.46
2023-03-26T07:18:25.333Z,63.88
2023-03-26T07:20:58.047Z,63.92
2023-03-26T07:23:34.499Z,64.07
2023-03-26T07:26:37.613Z,64.06
2023-03-26T07:29:34.890Z,63.81
2023-03-26T07:32:43.233Z,63.35
2023-03-26T07:35:41.695Z,63.54
2023-03-26T07:38:56.195Z,61.90
2023-03-26T07:42:02.173Z,61.89
2023-03-26T07:45:04.203Z,60.78
2023-03-26T07:47:58.868Z,60.01
2023-03-26T07:50:50.286Z,59.85
2023-03-26T07:53:46.408Z,60.02
2023-03-26T07:56:43.878Z,59.90
2023-03-26T07:59:39.549Z,59.48
2023-03-26T08:02:41.447Z,59.80
2023-03-26T08:05:58.485Z,59.85
2023-03-26T08:08:46.469Z,59.54
2023-03-26T08:11:36.061Z,59.62
2023-03-26T08:14:19.050Z,60.34
2023-03-26T08:16:55.988Z,60.67
2023-03-26T08:19:40.799Z,60.81
2023-03-26T08:22:17.969Z,60.69
2023-03-26T08:25:01.335Z,60.76
2023-03-26T08:27:38.991Z,61.23
2023-03-26T08:30:17.149Z,61.73
2023-03-26T08:32:55.471Z,61.61
2023-03-26T08:35:26.923Z,62.23
2023-03-26T08:37:57.709Z,62.16
2023-03-26T08:40:52.303Z,63.46
2023-03-26T08:43:39.144Z,62.84
2023-03-26T08:46:43.468Z,62.48
2023-03-26T08:49:43.947Z,62.42
2023-03-26T08:52:47.368Z,62.36
2023-03-26T08:55:44.481Z,62.33
2023-03-26T08:58:59.404Z,61.56
2023-03-26T09:01:59.791Z,61.90
2023-03-26T09:05:05.145Z,61.45
2023-03-26T09:08:05.900Z,61.92
2023-03-26T09:11:08.422Z,61.52
2023-03-26T09:14:02.414Z,60.53
2023-03-26T09:17:04.689Z,60.03
2023-03-26T09:20:12.331Z,60.90
2023-03-26T09:23:08.193Z,60.42
2023-03-26T09:25:54.322Z,60.50
2023-03-26T09:28:52.412Z,60.28
2023-03-26T09:31:46.086Z,60.06
2023-03-26T09:34:31.658Z,60.13
2023-03-26T09:37:18.924Z,59.95
2023-03-26T09:40:05.203Z,60.61
2023-03-26T09:42:44.390Z,59.45
2023-03-26T09:45:45.217Z,59.76
2023-03-26T09:48:31.184Z,59.14
2023-03-26T09:51:27.792Z,58.62
2023-03-26T09:54:18.183Z,59.02
2023-03-26T09:56:52.501Z,59.70
2023-03-26T09:59:45.567Z,59.38
2023-03-26T10:02:45.925Z,57.60
2023-03-26T10:05:41.560Z,57.31
2023-03-26T10:08:48.211Z,55.80
2023-03-26T10:11:28.506Z,54.98
2023-03-26T10:14:07.353Z,55.14
2023-03-26T10:16:51.927Z,54.59
2023-03-26T10:19:43.136Z,55.68
2023-03-26T10:22:30.612Z,56.40
2023-03-26T10:25:19.141Z,57.29
2023-03-26T10:28:02.493Z,55.08
2023-03-26T10:30:46.941Z,54.96
2023-03-26T10:33:31.842Z,54.58
2023-03-26T10:36:22.707Z,55.39
2023-03-26T10:39:10.574Z,55.68
2023-03-26T10:42:15.478Z,54.03
2023-03-26T10:45:10.227Z,52.87
2023-03-26T10:48:03.256Z,53.64
2023-03-26T10:50:59.152Z,52.09
2023-03-26T10:53:40.092Z,51.46
2023-03-26T10:56:21.159Z,52.03
2023-03-26T10:58:52.475Z,52.29
2023-03-26T11:01:33.594Z,50.58
2023-03-26T11:04:13.079Z,50.51
2023-03-26T11:06:51.201Z,49.22
2023-03-26T11:09:34.777Z,49.12
2023-03-26T11:12:26.816Z,49.39
2023-03-26T11:15:11.831Z,50.21
2023-03-26T11:17:54.623Z,48.41
2023-03-26T11:20:34.447Z,47.27
2023-03-26T11:23:20.792Z,49.16
2023-03-26T11:26:11.547Z,49.57
2023-03-26T11:29:30.858Z,49.54
2023-03-26T11:32:04.772Z,47.14
2023-03-26T11:34:40.229Z,48.21
2023-03-26T11:37:21.072Z,48.11
2023-03-26T11:39:56.546Z,47.21
2023-03-26T11:42:29.893Z,46.51
2023-03-26T11:45:05.198Z,47.41
2023-03-26T11:47:44.624Z,48.71
2023-03-26T11:50:21.918Z,49.08
2023-03-26T11:52:53.477Z,49.28
2023-03-26T11:55:25.147Z,48.80
2023-03-26T11:57:59.436Z,48.34
2023-03-26T12:00:32.069Z,48.12
2023-03-26T12:03:02.985Z,48.16
2023-03-26T12:05:48.685Z,48.84
2023-03-26T12:08:31.530Z,48.12
2023-03-26T12:11:10.367Z,48.88
2023-03-26T12:13:45.763Z,48.79
2023-03-26T12:16:19.008Z,49.20
2023-03-26T12:19:01.132Z,49.39
2023-03-26T12:21:44.243Z,49.45
2023-03-26T12:24:29.391Z,49.50
2023-03-26T12:27:20.403Z,49.41
2023-03-26T12:30:00.258Z,49.37
2023-03-26T12:32:46.351Z,49.42
2023-03-26T12:35:21.141Z,49.30
2023-03-26T12:37:51.895Z,49.10
2023-03-26T12:40:36.631Z,49.11
2023-03-26T12:44:54.606Z,48.50
2023-03-26T12:47:58.513Z,49.16
2023-03-26T12:49:19.132Z,48.72
2023-03-26T12:51:56.757Z,48.98
2023-03-26T12:54:46.090Z,48.61
2023-03-26T12:57:22.353Z,48.55
2023-03-26T13:00:13.334Z,48.48
2023-03-26T13:03:07.164Z,48.55
2023-03-26T13:05:51.817Z,48.80
2023-03-26T13:08:53.456Z,49.21
2023-03-26T13:11:35.162Z,49.43
2023-03-26T13:14:21.938Z,49.62
2023-03-26T13:17:00.641Z,50.00
2023-03-26T13:19:39.230Z,49.51
2023-03-26T13:22:26.048Z,49.54
2023-03-26T13:25:07.491Z,49.37
2023-03-26T13:27:52.072Z,49.56
2023-03-26T13:30:34.446Z,49.54
2023-03-26T13:33:31.363Z,49.62
2023-03-26T13:36:23.086Z,49.71
2023-03-26T13:39:08.107Z,50.19
2023-03-26T13:42:05.692Z,49.74
2023-03-26T13:44:47.155Z,49.67
2023-03-26T13:47:21.617Z,49.72
2023-03-26T13:49:56.921Z,49.99
2023-03-26T13:52:34.325Z,49.87
2023-03-26T13:55:20.889Z,49.71
2023-03-26T13:57:58.245Z,49.40
2023-03-26T14:00:32.562Z,49.41
2023-03-26T14:03:11.701Z,49.65
2023-03-26T14:05:47.665Z,50.22
2023-03-26T14:08:27.063Z,50.44
2023-03-26T14:11:06.473Z,50.68
2023-03-26T14:13:44.333Z,50.54
2023-03-26T14:16:19.419Z,50.39
2023-03-26T14:18:59.105Z,50.34
2023-03-26T14:21:49.888Z,50.81
2023-03-26T14:24:58.794Z,51.33
2023-03-26T14:27:38.670Z,51.78
2023-03-26T14:30:31.390Z,51.89
2023-03-26T14:33:27.519Z,51.99
2023-03-26T14:36:08.080Z,53.13
2023-03-26T14:39:15.898Z,54.35
2023-03-26T14:41:53.252Z,55.57
2023-03-26T14:44:57.656Z,56.79
2023-03-26T14:47:30.223Z,57.63
2023-03-26T14:50:36.016Z,58.31
2023-03-26T14:53:17.283Z,59.09
2023-03-26T14:56:07.509Z,59.57
2023-03-26T14:59:14.819Z,59.80
2023-03-26T15:04:54.042Z,59.33
2023-03-26T15:07:52.755Z,59.82
2023-03-26T15:10:37.992Z,59.63
2023-03-26T15:13:39.074Z,59.73
2023-03-26T15:16:43.289Z,59.61
2023-03-26T15:22:36.458Z,61.72
2023-03-26T15:25:49.058Z,61.83
2023-03-26T15:28:55.386Z,61.07
2023-03-26T15:31:47.642Z,61.13
2023-03-26T15:34:57.032Z,61.17
2023-03-26T15:38:10.176Z,61.36
2023-03-26T15:40:50.140Z,61.99
2023-03-26T15:43:49.949Z,62.63
2023-03-26T15:46:49.847Z,63.03
2023-03-26T15:49:28.650Z,63.00
2023-03-26T15:52:06.565Z,63.54
2023-03-26T15:54:47.726Z,64.89
2023-03-26T15:57:28.766Z,66.02
2023-03-26T16:00:15.437Z,64.97
2023-03-26T16:02:54.737Z,64.57
2023-03-26T16:05:46.418Z,64.97
2023-03-26T16:08:30.787Z,65.17
2023-03-26T16:11:08.037Z,65.25
2023-03-26T16:13:41.418Z,65.35
2023-03-26T16:16:24.791Z,65.84
2023-03-26T16:19:20.213Z,66.35
2023-03-26T16:22:01.618Z,66.54
2023-03-26T16:24:35.067Z,66.69
2023-03-26T16:27:27.352Z,66.74
2023-03-26T16:30:27.439Z,67.41
2023-03-26T16:33:06.326Z,67.71
2023-03-26T16:36:18.492Z,68.35
2023-03-26T16:39:12.693Z,68.90
2023-03-26T16:42:06.042Z,69.32
2023-03-26T16:44:56.600Z,69.38
2023-03-26T16:47:33.969Z,70.22
2023-03-26T16:50:19.701Z,69.79
2023-03-26T16:52:58.786Z,70.14
2023-03-26T16:55:42.831Z,70.67
2023-03-26T16:58:28.976Z,70.86
2023-03-26T17:01:15.968Z,70.92
2023-03-26T17:03:55.914Z,71.04
2023-03-26T17:06:46.988Z,70.96
2023-03-26T17:09:29.983Z,71.56
2023-03-26T17:12:08.405Z,71.31
2023-03-26T17:14:54.500Z,71.31
2023-03-26T17:17:41.529Z,71.22
2023-03-26T17:20:25.361Z,71.35
2023-03-26T17:23:03.736Z,71.50
2023-03-26T17:25:38.961Z,71.55
2023-03-26T17:28:39.714Z,71.74
2023-03-26T17:31:21.201Z,71.83
2023-03-26T17:33:53.480Z,71.65
2023-03-26T17:36:41.162Z,71.19
2023-03-26T17:40:12.624Z,71.21
2023-03-26T17:43:03.482Z,71.09
2023-03-26T17:45:39.211Z,71.26
2023-03-26T17:48:20.649Z,71.47
2023-03-26T17:50:56.548Z,71.25
2023-03-26T17:53:30.756Z,71.32
2023-03-26T17:56:06.550Z,70.76
2023-03-26T17:58:43.094Z,71.33
2023-03-26T18:01:23.727Z,71.38
2023-03-26T18:04:00.139Z,71.44
2023-03-26T18:06:47.417Z,71.74
2023-03-26T18:09:32.948Z,72.05
2023-03-26T18:12:23.726Z,71.91
2023-03-26T18:15:11.197Z,72.31
2023-03-26T18:17:48.637Z,72.56
2023-03-26T18:20:28.780Z,72.83
2023-03-26T18:23:14.518Z,73.00
2023-03-26T18:25:56.712Z,73.20
2023-03-26T18:28:36.130Z,73.09
2023-03-26T18:31:20.572Z,72.99
2023-03-26T18:34:13.093Z,73.08
2023-03-26T18:36:58.766Z,73.04
2023-03-26T18:39:32.869Z,73.23
2023-03-26T18:42:03.680Z,73.38
2023-03-26T18:44:36.758Z,73.32
2023-03-26T18:47:10.497Z,73.43
2023-03-26T18:49:43.037Z,73.20
2023-03-26T18:52:17.687Z,73.25
2023-03-26T18:54:53.892Z,73.24
2023-03-26T18:57:27.134Z,75.73
2023-03-26T19:00:10.309Z,80.61
2023-03-26T19:02:41.993Z,79.66
2023-03-26T19:05:17.728Z,78.84
2023-03-26T19:07:52.311Z,77.86
2023-03-26T19:10:25.226Z,76.65
2023-03-26T19:13:01.301Z,75.58
2023-03-26T19:15:33.888Z,74.54
2023-03-26T19:18:07.454Z,73.42
2023-03-26T19:20:43.490Z,71.63
2023-03-26T19:23:18.639Z,69.01
2023-03-26T19:25:51.998Z,68.17
2023-03-26T19:28:25.722Z,69.69
2023-03-26T19:30:59.652Z,69.29
2023-03-26T19:33:37.815Z,68.40
2023-03-26T19:36:21.214Z,68.19
2023-03-26T19:38:54.893Z,69.01
2023-03-26T19:41:27.929Z,69.29
2023-03-26T19:44:02.007Z,68.87
2023-03-26T19:46:53.803Z,70.18
2023-03-26T19:49:32.815Z,70.55
2023-03-26T19:52:16.211Z,69.80
2023-03-26T19:55:04.699Z,69.67
2023-03-26T19:57:37.866Z,70.43
2023-03-26T20:00:14.338Z,70.21
2023-03-26T20:02:47.066Z,70.12
2023-03-26T20:05:24.464Z,69.82
2023-03-26T20:07:57.030Z,70.12
2023-03-26T20:10:26.319Z,69.67
2023-03-26T20:12:58.404Z,69.49
2023-03-26T20:15:33.408Z,69.72
2023-03-26T20:18:04.444Z,70.50
2023-03-26T20:20:36.501Z,70.37
2023-03-26T20:23:11.736Z,70.33
2023-03-26T20:25:51.701Z,70.77
2023-03-26T20:28:24.628Z,70.35
2023-03-26T20:30:55.644Z,70.18
2023-03-26T20:33:27.760Z,70.66
2023-03-26T20:36:00.090Z,70.81
2023-03-26T20:38:39.003Z,71.26
2023-03-26T20:41:13.994Z,71.25
2023-03-26T20:43:45.078Z,71.81
2023-03-26T20:46:20.347Z,71.51
2023-03-26T20:48:51.800Z,71.61
2023-03-26T20:51:22.544Z,71.15
2023-03-26T20:53:54.197Z,69.89
2023-03-26T20:56:25.894Z,70.03
2023-03-26T20:59:09.847Z,70.81
2023-03-26T21:01:42.189Z,71.73
2023-03-26T21:04:13.203Z,70.95
2023-03-26T21:06:44.474Z,70.22
2023-03-26T21:09:18.862Z,70.73
2023-03-26T21:12:00.645Z,70.39
2023-03-26T21:14:39.248Z,70.17
2023-03-26T21:17:13.723Z,70.94
2023-03-26T21:19:45.794Z,70.76
2023-03-26T21:22:27.732Z,70.74
2023-03-26T21:25:06.666Z,71.31
2023-03-26T21:27:44.691Z,71.80
2023-03-26T21:30:17.818Z,71.90
2023-03-26T21:32:50.541Z,72.09
2023-03-26T21:35:22.979Z,71.87
2023-03-26T21:37:57.628Z,71.71
2023-03-26T21:40:29.446Z,71.49
2023-03-26T21:43:01.399Z,71.78
2023-03-26T21:45:33.565Z,71.30
2023-03-26T21:48:05.564Z,71.39
2023-03-26T21:50:37.608Z,71.87
2023-03-26T21:53:12.765Z,71.29
2023-03-26T21:55:56.393Z,71.27
2023-03-26T21:58:41.871Z,71.00
2023-03-26T22:01:35.504Z,71.00
2023-03-26T22:04:13.551Z,71.30
2023-03-26T22:06:50.818Z,71.19
2023-03-26T22:09:30.082Z,70.79
2023-03-26T22:12:07.325Z,71.07
2023-03-26T22:14:38.741Z,70.47
2023-03-26T22:17:09.639Z,70.81
2023-03-26T22:19:44.273Z,70.98
2023-03-26T22:22:14.998Z,70.24
2023-03-26T22:24:45.828Z,70.19
2023-03-26T22:27:16.791Z,70.07
2023-03-26T22:29:47.565Z,70.94
2023-03-26T22:32:18.376Z,71.99
2023-03-26T22:34:49.088Z,72.67
2023-03-26T22:37:19.751Z,72.59
2023-03-26T22:39:50.525Z,72.20
2023-03-26T22:42:21.340Z,71.73
2023-03-26T22:44:52.006Z,71.65
2023-03-26T22:47:22.823Z,71.77
2023-03-26T22:49:53.531Z,71.39
2023-03-26T22:52:24.482Z,71.17
2023-03-26T22:54:55.180Z,71.01
2023-03-26T22:57:26.083Z,70.88
2023-03-26T22:59:56.799Z,71.44
2023-03-26T23:02:27.546Z,70.98
2023-03-26T23:04:58.482Z,71.25
2023-03-26T23:07:29.188Z,71.37
2023-03-26T23:10:00.015Z,71.77
2023-03-26T23:12:30.702Z,71.49
2023-03-26T23:15:05.086Z,72.24
2023-03-26T23:17:37.756Z,72.91
2023-03-26T23:20:15.451Z,72.43
2023-03-26T23:22:46.457Z,72.73
2023-03-26T23:25:17.420Z,72.18
2023-03-26T23:27:48.530Z,71.95
2023-03-26T23:30:19.718Z,72.00
2023-03-26T23:32:50.595Z,71.59
2023-03-26T23:35:21.401Z,71.51
2023-03-26T23:37:52.277Z,71.18
2023-03-26T23:40:23.001Z,71.79
2023-03-26T23:42:53.618Z,71.37
2023-03-26T23:45:24.456Z,71.65
2023-03-26T23:47:56.132Z,71.75
2023-03-26T23:50:29.135Z,71.64
2023-03-26T23:53:00.314Z,71.65
2023-03-26T23:55:31.051Z,71.82
2023-03-26T23:58:01.788Z,71.88
